createdAt,value
2022-08-30T00:02:03.126Z,20.20
2022-08-30T00:04:29.929Z,20.20
2022-08-30T00:06:57.144Z,20.10
2022-08-30T00:09:24.354Z,20.10
2022-08-30T00:11:52.225Z,20.10
2022-08-30T00:14:20.388Z,20.00
2022-08-30T00:16:47.157Z,20.10
2022-08-30T00:19:13.999Z,20.00
2022-08-30T00:21:40.830Z,20.00
2022-08-30T00:24:08.439Z,19.90
2022-08-30T00:26:35.196Z,19.90
2022-08-30T00:29:02.016Z,19.90
2022-08-30T00:31:28.797Z,19.90
2022-08-30T00:33:55.608Z,19.90
2022-08-30T00:36:22.612Z,19.80
2022-08-30T00:38:49.396Z,19.90
2022-08-30T00:41:16.203Z,19.80
2022-08-30T00:43:43.177Z,19.80
2022-08-30T00:46:10.343Z,19.90
2022-08-30T00:48:45.904Z,19.90
2022-08-30T00:51:16.049Z,19.80
2022-08-30T00:53:49.532Z,19.80
2022-08-30T00:56:18.202Z,19.80
2022-08-30T00:58:52.167Z,19.80
2022-08-30T01:01:20.754Z,19.80
2022-08-30T01:03:48.761Z,19.80
2022-08-30T01:06:17.150Z,19.80
2022-08-30T01:08:46.066Z,19.80
2022-08-30T01:11:16.673Z,19.80
2022-08-30T01:13:47.042Z,19.80
2022-08-30T01:16:14.703Z,19.80
2022-08-30T01:18:41.899Z,19.80
2022-08-30T01:21:27.366Z,19.80
2022-08-30T01:23:58.804Z,19.80
2022-08-30T01:26:29.439Z,19.80
2022-08-30T01:29:05.578Z,19.70
2022-08-30T01:31:36.898Z,19.70
2022-08-30T01:34:08.051Z,19.70
2022-08-30T01:36:44.976Z,19.60
2022-08-30T01:39:15.805Z,19.70
2022-08-30T01:41:43.577Z,19.60
2022-08-30T01:44:13.164Z,19.60
2022-08-30T01:46:46.640Z,19.60
2022-08-30T01:49:18.980Z,19.60
2022-08-30T01:52:00.646Z,19.50
2022-08-30T01:54:36.693Z,19.50
2022-08-30T01:57:11.101Z,19.50
2022-08-30T01:59:42.494Z,19.50
2022-08-30T02:02:10.289Z,19.50
2022-08-30T02:04:37.115Z,19.50
2022-08-30T02:07:05.162Z,19.50
2022-08-30T02:09:31.978Z,19.40
2022-08-30T02:11:59.089Z,19.40
2022-08-30T02:14:26.274Z,19.40
2022-08-30T02:16:53.224Z,19.40
2022-08-30T02:19:20.126Z,19.40
2022-08-30T02:21:46.933Z,19.30
2022-08-30T02:24:13.754Z,19.30
2022-08-30T02:26:40.512Z,19.30
2022-08-30T02:29:07.309Z,19.30
2022-08-30T02:31:35.698Z,19.20
2022-08-30T02:34:02.530Z,19.10
2022-08-30T02:36:29.357Z,19.20
2022-08-30T02:38:56.682Z,19.20
2022-08-30T02:41:24.151Z,19.10
2022-08-30T02:43:52.405Z,19.10
2022-08-30T02:46:19.413Z,19.10
2022-08-30T02:48:46.266Z,19.00
2022-08-30T02:51:14.887Z,19.00
2022-08-30T02:53:43.884Z,19.00
2022-08-30T02:56:13.399Z,19.00
2022-08-30T02:58:42.484Z,19.00
2022-08-30T03:01:13.755Z,19.00
2022-08-30T03:03:43.441Z,18.90
2022-08-30T03:06:10.836Z,18.90
2022-08-30T03:08:38.012Z,18.90
2022-08-30T03:11:04.997Z,18.90
2022-08-30T03:13:31.812Z,18.90
2022-08-30T03:15:58.827Z,18.90
2022-08-30T03:18:26.709Z,18.90
2022-08-30T03:20:54.082Z,18.90
2022-08-30T03:23:23.745Z,18.80
2022-08-30T03:25:51.553Z,18.80
2022-08-30T03:28:18.301Z,18.80
2022-08-30T03:30:45.049Z,18.80
2022-08-30T03:33:11.811Z,18.80
2022-08-30T03:35:38.734Z,18.80
2022-08-30T03:38:06.478Z,18.70
2022-08-30T03:40:33.377Z,18.80
2022-08-30T03:43:00.974Z,18.80
2022-08-30T03:45:28.090Z,18.70
2022-08-30T03:47:55.378Z,18.70
2022-08-30T03:50:22.165Z,18.70
2022-08-30T03:52:49.090Z,18.70
2022-08-30T03:55:16.096Z,18.70
2022-08-30T03:57:43.866Z,18.70
2022-08-30T04:00:13.664Z,18.80
2022-08-30T04:02:41.676Z,18.70
2022-08-30T04:05:10.969Z,18.70
2022-08-30T04:07:38.112Z,18.70
2022-08-30T04:10:10.005Z,18.70
2022-08-30T04:12:38.565Z,18.70
2022-08-30T04:15:06.633Z,18.70
2022-08-30T04:17:33.749Z,18.70
2022-08-30T04:20:00.813Z,18.70
2022-08-30T04:22:27.645Z,18.60
2022-08-30T04:24:54.454Z,18.60
2022-08-30T04:27:21.398Z,18.60
2022-08-30T04:29:48.537Z,18.50
2022-08-30T04:32:16.651Z,18.60
2022-08-30T04:34:44.258Z,18.70
2022-08-30T04:37:11.131Z,18.60
2022-08-30T04:39:38.480Z,18.60
2022-08-30T04:42:05.462Z,18.60
2022-08-30T04:44:32.888Z,18.70
2022-08-30T04:47:00.652Z,18.70
2022-08-30T04:49:27.420Z,18.70
2022-08-30T04:51:54.255Z,18.70
2022-08-30T04:54:21.414Z,18.70
2022-08-30T04:56:48.252Z,18.80
2022-08-30T04:59:15.107Z,18.70
2022-08-30T05:01:44.678Z,18.70
2022-08-30T05:04:14.676Z,18.90
2022-08-30T05:06:42.154Z,18.90
2022-08-30T05:09:09.107Z,18.90
2022-08-30T05:11:35.954Z,18.90
2022-08-30T05:14:02.856Z,18.90
2022-08-30T05:16:29.718Z,18.90
2022-08-30T05:18:56.698Z,19.00
2022-08-30T05:21:29.253Z,19.10
2022-08-30T05:24:00.274Z,19.00
2022-08-30T05:26:34.228Z,19.10
2022-08-30T05:29:01.834Z,19.10
2022-08-30T05:31:35.347Z,19.10
2022-08-30T05:34:03.073Z,19.20
2022-08-30T05:36:34.206Z,19.30
2022-08-30T05:39:01.321Z,19.30
2022-08-30T05:41:28.256Z,19.30
2022-08-30T05:43:59.078Z,19.30
2022-08-30T05:46:30.307Z,19.40
2022-08-30T05:48:57.835Z,19.40
2022-08-30T05:51:28.829Z,19.50
2022-08-30T05:53:58.193Z,19.60
2022-08-30T05:56:31.633Z,19.60
2022-08-30T05:58:58.649Z,19.70
2022-08-30T06:01:31.818Z,19.80
2022-08-30T06:04:03.917Z,19.80
2022-08-30T06:06:35.128Z,19.90
2022-08-30T06:09:05.818Z,20.00
2022-08-30T06:11:34.166Z,20.00
2022-08-30T06:14:02.032Z,20.10
2022-08-30T06:16:30.375Z,20.10
2022-08-30T06:18:59.254Z,20.30
2022-08-30T06:21:34.728Z,20.30
2022-08-30T06:24:04.044Z,20.40
2022-08-30T06:28:59.357Z,20.60
2022-08-30T06:31:26.769Z,20.70
2022-08-30T06:33:54.438Z,20.70
2022-08-30T06:36:26.016Z,20.70
2022-08-30T06:38:56.743Z,20.80
2022-08-30T06:41:31.324Z,20.90
2022-08-30T06:44:01.393Z,21.00
2022-08-30T06:46:35.970Z,20.90
2022-08-30T06:49:05.251Z,21.10
2022-08-30T06:51:39.746Z,21.20
2022-08-30T06:54:09.239Z,21.30
2022-08-30T06:56:40.221Z,21.30
2022-08-30T06:59:09.824Z,21.40
2022-08-30T07:01:37.058Z,21.40
2022-08-30T07:04:04.716Z,21.50
2022-08-30T07:06:33.426Z,21.50
2022-08-30T07:09:00.244Z,21.60
2022-08-30T07:11:36.519Z,21.60
2022-08-30T07:14:05.005Z,21.70
2022-08-30T07:16:32.784Z,21.70
2022-08-30T07:19:00.484Z,21.80
2022-08-30T07:21:36.734Z,21.80
2022-08-30T07:24:05.149Z,21.80
2022-08-30T07:26:41.642Z,21.90
2022-08-30T07:29:10.080Z,21.90
2022-08-30T07:31:37.901Z,21.90
2022-08-30T07:34:06.765Z,22.00
2022-08-30T07:36:35.606Z,22.10
2022-08-30T07:39:03.452Z,22.10
2022-08-30T07:41:35.806Z,22.10
2022-08-30T07:44:03.039Z,22.10
2022-08-30T07:46:30.076Z,22.20
2022-08-30T07:49:00.136Z,22.20
2022-08-30T07:51:29.776Z,22.20
2022-08-30T07:53:57.428Z,22.30
2022-08-30T07:56:25.190Z,22.30
2022-08-30T07:58:52.907Z,22.30
2022-08-30T08:01:21.743Z,22.30
2022-08-30T08:03:50.363Z,22.30
2022-08-30T08:06:20.737Z,22.40
2022-08-30T08:08:47.842Z,22.40
2022-08-30T08:11:19.869Z,22.40
2022-08-30T08:13:53.705Z,22.50
2022-08-30T08:16:26.270Z,22.50
2022-08-30T08:18:54.783Z,22.60
2022-08-30T08:21:24.095Z,22.70
2022-08-30T08:23:51.783Z,22.90
2022-08-30T08:26:20.297Z,22.70
2022-08-30T08:28:47.438Z,22.70
2022-08-30T08:31:22.015Z,22.80
2022-08-30T08:33:52.392Z,22.80
2022-08-30T08:36:19.222Z,22.90
2022-08-30T08:38:46.290Z,23.00
2022-08-30T08:41:46.488Z,23.00
2022-08-30T08:44:41.816Z,23.10
2022-08-30T08:47:26.231Z,23.20
2022-08-30T08:49:59.859Z,23.30
2022-08-30T08:52:55.674Z,23.50
2022-08-30T08:55:24.653Z,23.60
2022-08-30T08:57:52.518Z,23.60
2022-08-30T09:00:19.676Z,23.70
2022-08-30T09:03:04.346Z,23.80
2022-08-30T09:05:40.435Z,23.80
2022-08-30T09:08:14.583Z,23.90
2022-08-30T09:11:02.864Z,24.00
2022-08-30T09:13:29.737Z,24.10
2022-08-30T09:16:00.068Z,24.20
2022-08-30T09:18:50.115Z,24.30
2022-08-30T09:21:27.828Z,24.30
2022-08-30T09:24:04.913Z,24.30
2022-08-30T09:26:37.678Z,24.40
2022-08-30T09:29:16.018Z,24.40
2022-08-30T09:32:10.174Z,24.30
2022-08-30T09:34:43.988Z,24.20
2022-08-30T09:37:31.294Z,24.10
2022-08-30T09:39:58.875Z,24.10
2022-08-30T09:42:29.879Z,24.00
2022-08-30T09:45:10.696Z,23.90
2022-08-30T09:47:43.485Z,23.70
2022-08-30T09:50:24.222Z,23.80
2022-08-30T09:53:11.981Z,23.80
2022-08-30T09:56:22.483Z,23.70
2022-08-30T09:59:24.877Z,23.80
2022-08-30T10:02:04.605Z,23.80
2022-08-30T10:05:16.177Z,23.80
2022-08-30T10:08:27.727Z,23.90
2022-08-30T10:11:04.865Z,24.00
2022-08-30T10:14:02.462Z,24.00
2022-08-30T10:16:46.598Z,24.10
2022-08-30T10:19:42.122Z,24.10
2022-08-30T10:22:22.053Z,24.20
2022-08-30T10:25:08.175Z,24.30
2022-08-30T10:27:52.279Z,24.30
2022-08-30T10:30:20.246Z,24.40
2022-08-30T10:32:53.348Z,24.50
2022-08-30T10:35:34.065Z,24.50
2022-08-30T10:38:18.426Z,24.70
2022-08-30T10:41:13.900Z,24.70
2022-08-30T10:44:15.269Z,24.70
2022-08-30T10:47:06.274Z,24.90
2022-08-30T10:49:41.636Z,25.00
2022-08-30T10:52:33.520Z,25.10
2022-08-30T10:55:14.872Z,25.10
2022-08-30T10:57:43.555Z,25.20
2022-08-30T11:00:28.806Z,25.20
2022-08-30T11:03:28.215Z,25.30
2022-08-30T11:06:30.285Z,25.40
2022-08-30T11:09:30.370Z,25.40
2022-08-30T11:12:27.776Z,25.50
2022-08-30T11:14:55.075Z,25.60
2022-08-30T11:17:32.740Z,25.60
2022-08-30T11:20:04.692Z,25.70
2022-08-30T11:22:39.238Z,25.70
2022-08-30T11:25:38.791Z,25.80
2022-08-30T11:28:06.408Z,25.90
2022-08-30T11:30:33.406Z,25.90
2022-08-30T11:33:12.990Z,26.00
2022-08-30T11:35:55.392Z,26.00
2022-08-30T11:38:29.147Z,26.00
2022-08-30T11:40:56.187Z,26.00
2022-08-30T11:43:36.765Z,26.00
2022-08-30T11:46:19.412Z,26.00
2022-08-30T11:49:13.103Z,25.90
2022-08-30T11:52:26.263Z,26.00
2022-08-30T11:55:40.315Z,25.90
2022-08-30T11:58:44.134Z,26.00
2022-08-30T12:01:51.144Z,26.00
2022-08-30T12:04:17.529Z,26.00
2022-08-30T12:06:52.083Z,26.00
2022-08-30T12:09:24.998Z,26.00
2022-08-30T12:12:02.619Z,26.00
2022-08-30T12:14:48.709Z,25.90
2022-08-30T12:17:41.620Z,25.90
2022-08-30T12:20:27.427Z,25.80
2022-08-30T12:22:56.401Z,25.90
2022-08-30T12:25:31.558Z,25.70
2022-08-30T12:28:22.889Z,25.70
2022-08-30T12:30:51.415Z,25.90
2022-08-30T12:33:37.558Z,25.90
2022-08-30T12:36:35.488Z,26.00
2022-08-30T12:39:18.833Z,26.10
2022-08-30T12:41:46.011Z,26.10
2022-08-30T12:44:19.791Z,26.10
2022-08-30T12:46:53.954Z,26.20
2022-08-30T12:49:28.266Z,26.30
2022-08-30T12:51:56.473Z,26.40
2022-08-30T12:54:31.066Z,26.40
2022-08-30T13:00:01.633Z,26.50
2022-08-30T13:02:53.836Z,26.50
2022-08-30T13:05:45.622Z,26.60
2022-08-30T13:08:36.648Z,26.60
2022-08-30T13:11:30.411Z,26.70
2022-08-30T13:14:19.641Z,26.70
2022-08-30T13:16:47.019Z,26.70
2022-08-30T13:19:41.100Z,26.70
2022-08-30T13:23:02.924Z,26.70
2022-08-30T13:25:30.885Z,26.70
2022-08-30T13:28:02.351Z,26.60
2022-08-30T13:30:29.746Z,26.60
2022-08-30T13:32:56.605Z,26.60
2022-08-30T13:35:23.590Z,26.60
2022-08-30T13:37:51.495Z,26.60
2022-08-30T13:40:21.463Z,26.60
2022-08-30T13:42:50.139Z,26.60
2022-08-30T13:48:07.199Z,26.50
2022-08-30T13:50:34.054Z,26.40
2022-08-30T13:53:00.888Z,26.40
2022-08-30T13:55:28.866Z,26.30
2022-08-30T13:57:56.744Z,26.30
2022-08-30T14:00:26.108Z,26.20
2022-08-30T14:02:57.719Z,26.10
2022-08-30T14:05:48.242Z,26.00
2022-08-30T14:11:19.493Z,25.80
2022-08-30T14:16:41.353Z,25.60
2022-08-30T14:19:09.192Z,25.60
2022-08-30T14:21:36.424Z,25.40
2022-08-30T14:24:06.261Z,25.40
2022-08-30T14:26:45.372Z,25.30
2022-08-30T14:29:17.091Z,25.30
2022-08-30T14:31:44.986Z,25.20
2022-08-30T14:34:13.697Z,25.20
2022-08-30T14:36:44.534Z,25.20
2022-08-30T14:39:15.891Z,25.20
2022-08-30T14:41:47.733Z,25.10
2022-08-30T14:44:17.815Z,25.10
2022-08-30T14:46:45.112Z,25.10
2022-08-30T14:49:13.793Z,25.10
2022-08-30T14:51:41.109Z,25.00
2022-08-30T14:54:09.031Z,25.00
2022-08-30T14:56:38.512Z,25.00
2022-08-30T14:59:06.418Z,25.00
2022-08-30T15:01:37.303Z,25.00
2022-08-30T15:04:07.473Z,24.90
2022-08-30T15:06:36.612Z,25.00
2022-08-30T15:09:07.181Z,24.90
2022-08-30T15:11:34.478Z,24.90
2022-08-30T15:14:02.037Z,24.90
2022-08-30T15:16:34.987Z,24.80
2022-08-30T15:19:03.207Z,24.80
2022-08-30T15:21:37.917Z,24.80
2022-08-30T15:24:08.842Z,24.80
2022-08-30T15:26:40.797Z,24.70
2022-08-30T15:29:08.836Z,24.80
2022-08-30T15:31:35.985Z,24.70
2022-08-30T15:34:03.141Z,24.70
2022-08-30T15:36:30.578Z,24.70
2022-08-30T15:38:59.336Z,24.70
2022-08-30T15:41:27.996Z,24.70
2022-08-30T15:43:58.260Z,24.70
2022-08-30T15:46:32.378Z,24.70
2022-08-30T15:49:07.326Z,24.70
2022-08-30T15:51:41.263Z,24.80
2022-08-30T15:54:11.916Z,24.80
2022-08-30T15:56:40.306Z,24.80
2022-08-30T15:59:09.584Z,24.80
2022-08-30T16:01:38.916Z,24.80
2022-08-30T16:04:06.168Z,24.90
2022-08-30T16:06:37.537Z,24.80
2022-08-30T16:09:07.084Z,24.80
2022-08-30T16:11:34.866Z,24.80
2022-08-30T16:14:02.056Z,24.80
2022-08-30T16:16:31.143Z,24.80
2022-08-30T16:18:58.194Z,24.80
2022-08-30T16:21:30.174Z,24.80
2022-08-30T16:24:00.726Z,24.80
2022-08-30T16:26:30.318Z,24.80
2022-08-30T16:28:58.607Z,24.70
2022-08-30T16:31:29.111Z,24.80
2022-08-30T16:34:02.439Z,24.70
2022-08-30T16:36:32.377Z,24.70
2022-08-30T16:39:00.456Z,24.70
2022-08-30T16:41:28.352Z,24.70
2022-08-30T16:43:55.932Z,24.60
2022-08-30T16:46:27.778Z,24.70
2022-08-30T16:48:57.750Z,24.60
2022-08-30T16:51:28.241Z,24.60
2022-08-30T16:53:58.773Z,24.60
2022-08-30T16:56:28.110Z,24.50
2022-08-30T16:59:01.838Z,24.50
2022-08-30T17:01:34.878Z,24.50
2022-08-30T17:04:03.897Z,24.50
2022-08-30T17:06:30.842Z,24.40
2022-08-30T17:08:59.108Z,24.30
2022-08-30T17:11:27.165Z,24.30
2022-08-30T17:13:54.987Z,24.30
2022-08-30T17:16:27.566Z,24.30
2022-08-30T17:18:59.866Z,24.20
2022-08-30T17:21:29.639Z,24.20
2022-08-30T17:24:01.717Z,24.10
2022-08-30T17:26:31.867Z,24.10
2022-08-30T17:28:59.010Z,23.90
2022-08-30T17:31:29.405Z,24.00
2022-08-30T17:34:02.831Z,24.00
2022-08-30T17:36:32.349Z,23.90
2022-08-30T17:38:59.133Z,23.90
2022-08-30T17:41:25.924Z,23.90
2022-08-30T17:43:53.979Z,23.90
2022-08-30T17:46:21.265Z,23.90
2022-08-30T17:48:48.070Z,23.80
2022-08-30T17:51:24.666Z,23.70
2022-08-30T17:53:51.464Z,23.70
2022-08-30T17:56:19.585Z,23.70
2022-08-30T17:58:47.501Z,23.60
2022-08-30T18:01:15.439Z,23.60
2022-08-30T18:03:45.444Z,23.60
2022-08-30T18:06:13.849Z,23.50
2022-08-30T18:08:40.902Z,23.40
2022-08-30T18:11:08.698Z,23.30
2022-08-30T18:13:36.024Z,23.30
2022-08-30T18:16:04.097Z,23.30
2022-08-30T18:18:31.975Z,23.10
2022-08-30T18:20:59.927Z,23.10
2022-08-30T18:23:26.969Z,23.00
2022-08-30T18:26:00.541Z,22.90
2022-08-30T18:28:29.034Z,22.90
2022-08-30T18:30:57.092Z,22.80
2022-08-30T18:33:26.311Z,22.70
2022-08-30T18:35:56.110Z,22.70
2022-08-30T18:38:24.538Z,22.60
2022-08-30T18:40:57.692Z,22.50
2022-08-30T18:43:30.633Z,22.50
2022-08-30T18:46:02.443Z,22.40
2022-08-30T18:48:30.125Z,22.40
2022-08-30T18:50:57.231Z,22.30
2022-08-30T18:53:28.731Z,22.20
2022-08-30T18:55:57.486Z,22.20
2022-08-30T18:58:24.297Z,22.10
2022-08-30T19:00:51.460Z,22.10
2022-08-30T19:03:19.238Z,22.10
2022-08-30T19:05:46.626Z,22.10
2022-08-30T19:08:14.192Z,22.00
2022-08-30T19:10:41.689Z,22.00
2022-08-30T19:13:09.933Z,21.90
2022-08-30T19:15:37.625Z,21.90
2022-08-30T19:18:16.656Z,21.80
2022-08-30T19:20:45.491Z,21.80
2022-08-30T19:23:13.162Z,21.80
2022-08-30T19:25:41.879Z,21.80
2022-08-30T19:28:10.871Z,21.80
2022-08-30T19:30:38.590Z,21.70
2022-08-30T19:33:05.985Z,21.70
2022-08-30T19:35:33.325Z,21.60
2022-08-30T19:38:00.564Z,21.60
2022-08-30T19:40:28.447Z,21.70
2022-08-30T19:42:55.822Z,21.60
2022-08-30T19:45:23.411Z,21.60
2022-08-30T19:47:53.150Z,21.50
2022-08-30T19:50:21.939Z,21.50
2022-08-30T19:52:54.073Z,21.50
2022-08-30T19:55:28.352Z,21.50
2022-08-30T19:57:57.373Z,21.40
2022-08-30T20:00:24.307Z,21.40
2022-08-30T20:02:51.433Z,21.40
2022-08-30T20:05:19.300Z,21.40
2022-08-30T20:07:51.007Z,21.30
2022-08-30T20:10:20.668Z,21.30
2022-08-30T20:12:49.857Z,21.30
2022-08-30T20:15:18.280Z,21.10
2022-08-30T20:18:05.493Z,21.20
2022-08-30T20:20:36.529Z,21.20
2022-08-30T20:23:05.392Z,21.10
2022-08-30T20:25:32.949Z,21.10
2022-08-30T20:28:00.333Z,21.00
2022-08-30T20:30:27.788Z,20.90
2022-08-30T20:32:54.802Z,21.00
2022-08-30T20:35:21.696Z,20.90
2022-08-30T20:37:49.270Z,20.90
2022-08-30T20:40:16.687Z,20.80
2022-08-30T20:42:45.674Z,20.80
2022-08-30T20:45:16.881Z,20.80
2022-08-30T20:47:44.477Z,20.70
2022-08-30T20:50:16.021Z,20.70
2022-08-30T20:52:43.833Z,20.70
2022-08-30T20:55:13.195Z,20.60
2022-08-30T20:57:40.450Z,20.60
2022-08-30T21:00:12.015Z,20.50
2022-08-30T21:02:46.183Z,20.50
2022-08-30T21:05:15.414Z,20.50
2022-08-30T21:07:44.262Z,20.50
2022-08-30T21:10:12.503Z,20.40
2022-08-30T21:12:39.528Z,20.30
2022-08-30T21:15:34.084Z,20.30
2022-08-30T21:17:54.419Z,20.20
2022-08-30T21:20:21.243Z,20.20
2022-08-30T21:22:48.106Z,20.10
2022-08-30T21:25:14.998Z,20.10
2022-08-30T21:27:43.652Z,20.00
2022-08-30T21:30:13.289Z,20.00
2022-08-30T21:32:41.284Z,20.00
2022-08-30T21:35:28.233Z,19.90
2022-08-30T21:37:55.422Z,19.90
2022-08-30T21:40:22.331Z,19.80
2022-08-30T21:42:49.222Z,19.80
2022-08-30T21:45:16.581Z,19.70
2022-08-30T21:47:43.891Z,19.70
2022-08-30T21:50:11.892Z,19.70
2022-08-30T21:52:38.849Z,19.70
2022-08-30T21:55:06.385Z,19.70
2022-08-30T21:57:33.205Z,19.60
2022-08-30T22:00:00.043Z,19.50
2022-08-30T22:02:27.284Z,19.50
2022-08-30T22:04:54.486Z,19.60
2022-08-30T22:07:21.449Z,19.50
2022-08-30T22:09:48.253Z,19.50
2022-08-30T22:12:15.238Z,19.50
2022-08-30T22:14:42.432Z,19.50
2022-08-30T22:17:09.429Z,19.50
2022-08-30T22:19:36.178Z,19.50
2022-08-30T22:22:02.999Z,19.60
2022-08-30T22:24:31.950Z,19.60
2022-08-30T22:27:00.579Z,19.50
2022-08-30T22:29:27.649Z,19.60
2022-08-30T22:31:54.671Z,19.60
2022-08-30T22:34:21.568Z,19.60
2022-08-30T22:36:48.915Z,19.60
2022-08-30T22:39:15.964Z,19.50
2022-08-30T22:41:44.181Z,19.50
2022-08-30T22:44:11.865Z,19.60
2022-08-30T22:46:39.174Z,19.50
2022-08-30T22:49:09.054Z,19.50
2022-08-30T22:51:37.646Z,19.50
2022-08-30T22:54:08.454Z,19.50
2022-08-30T22:56:38.321Z,19.50
2022-08-30T22:59:06.369Z,19.50
2022-08-30T23:01:38.241Z,19.40
2022-08-30T23:04:07.807Z,19.40
2022-08-30T23:06:36.028Z,19.40
2022-08-30T23:09:05.787Z,19.20
2022-08-30T23:11:33.276Z,19.30
2022-08-30T23:14:02.093Z,19.30
2022-08-30T23:16:29.408Z,19.30
2022-08-30T23:18:56.289Z,19.20
2022-08-30T23:21:28.641Z,19.20
2022-08-30T23:24:16.042Z,19.10
2022-08-30T23:27:03.771Z,19.20
2022-08-30T23:29:50.206Z,19.00
2022-08-30T23:32:36.118Z,19.00
2022-08-30T23:35:29.713Z,19.00
2022-08-30T23:38:17.742Z,18.90
2022-08-30T23:41:03.075Z,18.90
2022-08-30T23:43:48.616Z,18.90
2022-08-30T23:46:34.489Z,18.90
2022-08-30T23:49:20.105Z,18.80
2022-08-30T23:52:05.314Z,18.80
2022-08-30T23:54:50.914Z,18.80
2022-08-30T23:57:36.625Z,18.70
